createdAt,value
2022-12-16T06:08:11.432Z,4.38
2022-12-16T06:10:56.911Z,5.03
2022-12-16T06:13:42.384Z,4.72
2022-12-16T06:16:27.951Z,6.15
2022-12-16T06:19:13.481Z,5.15
2022-12-16T06:21:59.030Z,3.90
2022-12-16T06:24:44.449Z,6.20
2022-12-16T06:27:30.566Z,5.82
2022-12-16T06:30:15.909Z,5.60
2022-12-16T06:33:03.834Z,5.05
2022-12-16T06:35:51.122Z,6.25
2022-12-16T06:38:36.473Z,4.65
2022-12-16T06:41:41.867Z,5.38
2022-12-16T06:44:27.391Z,5.88
2022-12-16T06:47:13.178Z,5.07
2022-12-16T06:49:58.653Z,5.53
2022-12-16T06:52:45.394Z,5.20
2022-12-16T06:55:30.900Z,4.80
2022-12-16T06:58:17.440Z,4.93
2022-12-16T07:01:04.040Z,4.55
2022-12-16T07:03:51.217Z,4.90
2022-12-16T07:06:36.859Z,4.72
2022-12-16T07:09:25.993Z,5.18
2022-12-16T07:12:11.455Z,4.43
2022-12-16T07:14:56.989Z,5.60
2022-12-16T07:17:42.578Z,6.03
2022-12-16T07:20:28.524Z,4.28
2022-12-16T07:23:19.988Z,5.40
2022-12-16T07:26:08.477Z,5.38
2022-12-16T07:29:22.496Z,4.25
2022-12-16T07:32:13.902Z,5.05
2022-12-16T07:34:59.424Z,5.28
2022-12-16T07:37:46.499Z,3.47
2022-12-16T07:40:43.721Z,4.57
2022-12-16T07:43:33.062Z,5.45
2022-12-16T07:46:20.362Z,4.57
2022-12-16T07:50:02.474Z,5.68
2022-12-16T07:52:57.314Z,5.95
2022-12-16T07:55:58.006Z,5.55
2022-12-16T08:01:51.283Z,6.00
2022-12-16T08:04:43.184Z,6.43
2022-12-16T08:07:31.833Z,5.70
2022-12-16T08:10:38.133Z,6.10
2022-12-16T08:13:41.453Z,6.70
2022-12-16T08:20:12.773Z,6.70
2022-12-16T08:22:59.807Z,4.93
2022-12-16T08:25:49.233Z,6.07
2022-12-16T08:32:33.171Z,4.72
2022-12-16T08:35:38.580Z,4.90
2022-12-16T08:39:42.971Z,4.45
2022-12-16T08:43:10.848Z,6.07
2022-12-16T08:46:09.265Z,5.03
2022-12-16T08:50:02.031Z,4.75
2022-12-16T08:53:37.522Z,6.13
2022-12-16T08:57:07.204Z,5.90
2022-12-16T09:00:15.850Z,6.05
2022-12-16T09:03:19.996Z,5.45
2022-12-16T09:06:13.224Z,4.93
2022-12-16T09:08:58.890Z,4.53
2022-12-16T09:11:45.409Z,5.78
2022-12-16T09:14:31.113Z,4.95
2022-12-16T09:17:16.850Z,5.60
2022-12-16T09:20:02.228Z,4.32
2022-12-16T09:22:49.286Z,5.65
2022-12-16T09:25:46.068Z,5.00
2022-12-16T09:28:31.874Z,5.82
2022-12-16T09:31:20.396Z,5.13
2022-12-16T09:34:06.022Z,4.95
2022-12-16T09:36:53.202Z,6.40
2022-12-16T09:39:42.327Z,5.25
2022-12-16T09:42:42.179Z,6.95
2022-12-16T09:45:28.945Z,5.35
2022-12-16T09:48:32.799Z,6.03
2022-12-16T09:51:23.329Z,5.78
2022-12-16T09:54:13.073Z,5.60
2022-12-16T09:56:59.887Z,6.03
2022-12-16T09:59:56.194Z,5.30
2022-12-16T10:02:44.357Z,4.57
2022-12-16T10:05:36.217Z,5.93
2022-12-16T10:09:18.012Z,6.35
2022-12-16T10:12:17.846Z,6.30
2022-12-16T10:15:15.578Z,6.13
2022-12-16T10:18:04.618Z,4.97
2022-12-16T10:21:17.876Z,5.50
2022-12-16T10:24:18.697Z,6.10
2022-12-16T10:27:28.198Z,4.50
2022-12-16T10:30:14.388Z,5.18
2022-12-16T10:33:07.374Z,5.93
2022-12-16T10:39:13.039Z,4.90
2022-12-16T10:42:04.288Z,4.45
2022-12-16T10:45:14.604Z,5.90
2022-12-16T10:48:01.500Z,5.57
2022-12-16T10:50:47.211Z,5.72
2022-12-16T10:53:37.773Z,5.00
2022-12-16T10:56:53.261Z,5.13
2022-12-16T10:59:46.636Z,5.45
2022-12-16T11:02:39.326Z,5.63
2022-12-16T11:05:52.654Z,4.38
2022-12-16T11:09:06.096Z,5.03
2022-12-16T11:11:55.691Z,5.50
2022-12-16T11:15:27.752Z,5.28
2022-12-16T11:18:26.047Z,4.88
2022-12-16T11:21:43.973Z,5.18
2022-12-16T11:24:57.065Z,5.20
2022-12-16T11:27:47.545Z,6.43
2022-12-16T11:30:38.250Z,5.28
2022-12-16T11:33:46.359Z,5.05
2022-12-16T11:36:38.073Z,5.20
2022-12-16T11:39:32.461Z,4.28
2022-12-16T11:45:20.187Z,3.97
2022-12-16T11:48:15.920Z,4.45
2022-12-16T11:51:19.246Z,5.03
2022-12-16T11:59:05.822Z,4.43
2022-12-16T12:02:19.819Z,4.63
2022-12-16T12:05:11.013Z,4.60
2022-12-16T12:08:27.657Z,4.38
2022-12-16T12:11:40.125Z,4.85
2022-12-16T12:14:35.612Z,5.15
2022-12-16T12:17:43.004Z,5.43
2022-12-16T12:20:51.728Z,4.60
2022-12-16T12:24:11.592Z,5.13
2022-12-16T12:27:09.811Z,4.32
2022-12-16T12:30:18.423Z,5.40
2022-12-16T12:33:31.764Z,4.63
2022-12-16T12:36:41.908Z,4.72
2022-12-16T12:39:53.143Z,5.50
2022-12-16T12:43:03.729Z,4.65
2022-12-16T12:46:10.486Z,5.40
2022-12-16T12:49:23.978Z,5.70
2022-12-16T12:52:45.538Z,4.60
2022-12-16T12:55:47.467Z,5.70
2022-12-16T12:58:37.515Z,5.32
2022-12-16T13:01:28.148Z,4.80
2022-12-16T13:04:13.870Z,4.90
2022-12-16T13:07:14.191Z,5.30
2022-12-16T13:10:02.791Z,5.28
2022-12-16T13:12:53.277Z,5.28
2022-12-16T13:16:00.287Z,5.30
2022-12-16T13:18:51.347Z,5.55
2022-12-16T13:21:57.491Z,4.38
2022-12-16T13:25:05.118Z,6.00
2022-12-16T13:28:11.535Z,4.97
2022-12-16T13:31:00.210Z,5.32
2022-12-16T13:33:50.339Z,5.57
2022-12-16T13:36:39.269Z,5.15
2022-12-16T13:39:49.335Z,4.50
2022-12-16T13:43:12.848Z,5.93
2022-12-16T13:46:02.289Z,5.15
2022-12-16T13:49:11.542Z,5.13
2022-12-16T13:51:58.210Z,5.22
2022-12-16T13:54:49.937Z,5.28
2022-12-16T13:57:39.903Z,5.63
2022-12-16T14:00:39.754Z,5.72
2022-12-16T14:03:38.131Z,6.00
2022-12-16T14:06:31.434Z,5.95
2022-12-16T14:09:22.687Z,4.57
2022-12-16T14:12:27.324Z,6.03
2022-12-16T14:15:30.523Z,6.05
2022-12-16T14:18:38.034Z,5.50
2022-12-16T14:21:32.392Z,6.85
2022-12-16T14:24:29.763Z,5.95
2022-12-16T14:27:20.129Z,5.82
2022-12-16T14:30:08.972Z,5.45
2022-12-16T14:32:54.709Z,6.40
2022-12-16T14:36:11.751Z,5.95
2022-12-16T14:39:08.766Z,6.15
2022-12-16T14:41:56.485Z,5.68
2022-12-16T14:44:44.277Z,5.82
2022-12-16T14:47:41.324Z,6.53
2022-12-16T14:50:59.584Z,6.30
2022-12-16T14:53:59.330Z,6.57
2022-12-16T14:56:59.329Z,6.07
2022-12-16T14:59:48.218Z,6.63
2022-12-16T15:02:51.621Z,5.65
2022-12-16T15:05:46.069Z,5.50
2022-12-16T15:08:32.160Z,6.57
2022-12-16T15:11:20.074Z,5.22
2022-12-16T15:14:19.689Z,6.53
2022-12-16T15:17:08.138Z,6.05
2022-12-16T15:20:14.509Z,5.50
2022-12-16T15:23:08.140Z,5.85
2022-12-16T15:26:00.588Z,5.85
2022-12-16T15:29:02.927Z,5.82
2022-12-16T15:32:03.169Z,6.30
2022-12-16T15:35:09.650Z,5.50
2022-12-16T15:38:04.621Z,5.28
2022-12-16T15:40:59.056Z,5.18
2022-12-16T15:43:57.366Z,5.57
2022-12-16T15:46:48.204Z,5.90
2022-12-16T15:49:37.014Z,6.40
2022-12-16T15:52:56.338Z,4.85
2022-12-16T15:55:50.813Z,4.97
2022-12-16T15:59:04.397Z,5.45
2022-12-16T16:02:04.439Z,5.25
2022-12-16T16:04:50.670Z,4.85
2022-12-16T16:07:45.530Z,5.93
2022-12-16T16:10:44.415Z,5.32
2022-12-16T16:13:31.872Z,4.85
2022-12-16T16:16:20.885Z,5.30
2022-12-16T16:19:07.804Z,5.38
2022-12-16T16:21:53.524Z,4.55
2022-12-16T16:24:39.238Z,5.43
2022-12-16T16:27:34.314Z,5.20
2022-12-16T16:30:20.614Z,5.72
2022-12-16T16:33:27.841Z,5.32
2022-12-16T16:36:19.424Z,6.38
2022-12-16T16:39:06.602Z,6.72
2022-12-16T16:41:56.572Z,5.68
2022-12-16T16:44:42.485Z,6.25
2022-12-16T16:47:47.038Z,6.50
2022-12-16T16:50:42.483Z,5.88
2022-12-16T16:53:42.799Z,5.55
2022-12-16T16:56:33.161Z,4.47
2022-12-16T16:59:45.187Z,5.63
2022-12-16T17:02:47.518Z,6.18
2022-12-16T17:05:33.979Z,6.30
2022-12-16T17:08:21.020Z,5.45
2022-12-16T17:14:26.643Z,6.65
2022-12-16T17:17:19.379Z,6.70
2022-12-16T17:20:06.912Z,5.25
2022-12-16T17:22:54.538Z,5.97
2022-12-16T17:25:44.635Z,7.05
2022-12-16T17:28:34.287Z,6.47
2022-12-16T17:34:44.144Z,7.47
2022-12-16T17:37:33.246Z,6.47
2022-12-16T17:40:20.704Z,6.97
2022-12-16T17:43:11.752Z,5.72
2022-12-16T17:46:00.849Z,5.28
2022-12-16T17:48:46.442Z,5.93
2022-12-16T17:51:36.489Z,6.78
2022-12-16T17:54:29.038Z,6.70
2022-12-16T17:57:15.877Z,6.82
2022-12-16T18:00:01.734Z,7.10
2022-12-16T18:02:58.525Z,6.63
2022-12-16T18:05:45.005Z,6.75
2022-12-16T18:08:31.598Z,7.47
2022-12-16T18:11:17.924Z,6.45
2022-12-16T18:14:09.242Z,5.78
2022-12-16T18:16:58.647Z,6.93
2022-12-16T18:19:44.471Z,7.10
2022-12-16T18:22:30.268Z,7.43
2022-12-16T18:25:17.133Z,7.10
2022-12-16T18:28:02.819Z,6.55
2022-12-16T18:30:49.216Z,6.30
2022-12-16T18:33:34.888Z,6.38
2022-12-16T18:36:28.347Z,7.50
2022-12-16T18:39:13.966Z,6.60
2022-12-16T18:42:02.494Z,6.82
2022-12-16T18:44:49.384Z,6.82
2022-12-16T18:47:35.766Z,7.68
2022-12-16T18:50:27.833Z,7.82
2022-12-16T18:53:16.591Z,6.47
2022-12-16T18:56:02.003Z,6.88
2022-12-16T18:58:51.826Z,7.03
2022-12-16T19:01:38.338Z,7.57
2022-12-16T19:04:26.914Z,7.13
2022-12-16T19:07:15.684Z,6.22
2022-12-16T19:10:01.238Z,6.50
2022-12-16T19:12:53.225Z,6.53
2022-12-16T19:15:41.456Z,8.48
2022-12-16T19:18:27.851Z,6.50
2022-12-16T19:21:14.801Z,7.40
2022-12-16T19:24:04.977Z,7.10
2022-12-16T19:26:50.683Z,6.68
2022-12-16T19:29:37.531Z,7.18
2022-12-16T19:32:32.586Z,7.05
2022-12-16T19:35:44.143Z,8.15
2022-12-16T19:38:33.536Z,7.82
2022-12-16T19:41:19.106Z,6.45
2022-12-16T19:44:06.443Z,6.97
2022-12-16T19:49:59.336Z,6.07
2022-12-16T19:52:47.860Z,6.03
2022-12-16T19:55:34.628Z,7.00
2022-12-16T19:58:20.577Z,6.88
2022-12-16T20:01:06.030Z,8.80
2022-12-16T20:03:56.742Z,7.30
2022-12-16T20:06:42.913Z,7.38
2022-12-16T20:09:28.716Z,6.85
2022-12-16T20:12:14.249Z,8.00
2022-12-16T20:15:00.159Z,8.60
2022-12-16T20:17:45.707Z,7.95
2022-12-16T20:20:32.080Z,8.43
2022-12-16T20:23:19.636Z,9.65
2022-12-16T20:26:16.243Z,8.77
2022-12-16T20:29:02.141Z,9.35
2022-12-16T20:31:48.105Z,9.68
2022-12-16T20:34:33.813Z,8.80
2022-12-16T20:37:19.728Z,9.63
2022-12-16T20:40:05.291Z,10.52
2022-12-16T20:42:51.066Z,11.02
2022-12-16T20:45:40.785Z,10.35
2022-12-16T20:48:26.561Z,9.68
2022-12-16T20:51:22.571Z,10.70
2022-12-16T20:54:16.358Z,10.73
2022-12-16T20:57:01.783Z,10.88
2022-12-16T20:59:47.196Z,11.65
2022-12-16T21:02:35.072Z,12.02
2022-12-16T21:05:21.613Z,11.40
2022-12-16T21:08:17.942Z,12.32
2022-12-16T21:11:03.589Z,12.48
2022-12-16T21:13:49.618Z,11.07
2022-12-16T21:16:35.307Z,11.65
2022-12-16T21:19:20.773Z,10.88
2022-12-16T21:22:06.522Z,10.07
2022-12-16T21:24:52.102Z,9.88
2022-12-16T21:27:37.623Z,11.20
2022-12-16T21:30:23.550Z,10.88
2022-12-16T21:33:09.517Z,12.32
2022-12-16T21:36:01.482Z,11.65
2022-12-16T21:38:47.239Z,11.73
2022-12-16T21:41:32.704Z,12.32
2022-12-16T21:44:18.276Z,12.65
2022-12-16T21:47:03.840Z,10.95
2022-12-16T21:49:49.250Z,9.90
2022-12-16T21:52:36.986Z,9.80
2022-12-16T21:55:22.641Z,10.35
2022-12-16T21:58:08.354Z,8.77
2022-12-16T22:01:00.466Z,7.47
2022-12-16T22:04:01.989Z,8.25
2022-12-16T22:06:49.032Z,7.47
2022-12-16T22:09:37.525Z,6.93
2022-12-16T22:12:35.463Z,7.57
2022-12-16T22:15:30.444Z,7.35
2022-12-16T22:18:16.562Z,6.65
2022-12-16T22:21:04.412Z,7.25
2022-12-16T22:23:53.252Z,8.00
2022-12-16T22:26:41.590Z,6.40
2022-12-16T22:29:27.014Z,7.22
2022-12-16T22:32:12.921Z,6.68
2022-12-16T22:34:58.571Z,7.25
2022-12-16T22:36:20.284Z,8.13
2022-12-16T22:37:44.301Z,7.00
2022-12-16T22:40:31.074Z,6.43
2022-12-16T22:43:16.726Z,6.95
2022-12-16T22:46:02.466Z,7.15
2022-12-16T22:48:48.212Z,7.63
2022-12-16T22:51:34.566Z,6.95
2022-12-16T22:54:20.370Z,8.60
2022-12-16T22:57:06.573Z,6.93
2022-12-16T22:59:52.269Z,6.80
2022-12-16T23:02:38.962Z,8.10
2022-12-16T23:05:28.048Z,6.63
2022-12-16T23:08:14.248Z,7.63
2022-12-16T23:11:27.238Z,6.20
2022-12-16T23:14:15.647Z,6.63
2022-12-16T23:17:01.290Z,7.50
2022-12-16T23:19:46.749Z,6.82
2022-12-16T23:22:32.393Z,7.03
2022-12-16T23:25:17.809Z,8.32
2022-12-16T23:28:03.595Z,7.57
2022-12-16T23:30:49.139Z,8.90
2022-12-16T23:33:35.032Z,8.25
2022-12-16T23:36:22.562Z,8.38
2022-12-16T23:39:08.079Z,9.85
2022-12-16T23:41:53.476Z,8.88
2022-12-16T23:44:49.759Z,11.55
2022-12-16T23:47:39.528Z,8.90
2022-12-16T23:50:25.841Z,8.90
2022-12-16T23:53:26.624Z,8.85
2022-12-16T23:56:20.162Z,10.82
2022-12-16T23:59:07.386Z,9.90
